Time;durP1;ratioP1;P1;durP2;ratioP2;P2;SDS_P1;SDS_P2;PMS_P1;PMS_P2;Temp;Humidity;BMP_temperature;BMP_pressure;BME280_temperature;BME280_humidity;BME280_pressure;Samples;Min_cycle;Max_cycle;Signal;HPM_P1;HPM_P2
2024/03/29 00:07:11;;;;;;;5.55;0.65;;;9.90;1.00;;;;;;20359736;29;20050;-45
2024/03/29 00:17:11;;;;;;;5.43;1.02;;;9.90;1.00;;;;;;20357957;29;20044;-45
2024/03/29 00:27:13;;;;;;;5.03;0.88;;;9.90;1.00;;;;;;20354130;29;20062;-45
2024/03/29 00:37:14;;;;;;;4.25;0.90;;;9.80;1.00;;;;;;20351857;29;20044;-45
2024/03/29 00:47:15;;;;;;;3.15;0.70;;;9.90;1.00;;;;;;20354737;29;20216;-45
2024/03/29 00:57:15;;;;;;;5.47;0.98;;;9.70;1.00;;;;;;20348630;29;20050;-51
2024/03/29 01:07:17;;;;;;;7.32;1.20;;;9.70;1.00;;;;;;20352818;29;20071;-45
2024/03/29 01:17:18;;;;;;;4.90;0.90;;;9.70;1.00;;;;;;20349519;29;20399;-45
2024/03/29 01:27:18;;;;;;;6.00;0.68;;;9.60;1.00;;;;;;20353066;29;20432;-45
2024/03/29 01:37:19;;;;;;;6.25;0.90;;;9.60;1.00;;;;;;20358483;29;20153;-45
2024/03/29 01:47:19;;;;;;;4.77;0.73;;;9.60;1.00;;;;;;20368124;29;20475;-45
2024/03/29 01:57:21;;;;;;;5.30;0.80;;;9.60;1.00;;;;;;20368260;29;20220;-45
2024/03/29 02:07:22;;;;;;;4.55;0.85;;;9.50;1.00;;;;;;20367163;29;20399;-45
2024/03/29 02:17:23;;;;;;;5.63;1.05;;;9.40;1.00;;;;;;20367124;29;20495;-45
2024/03/29 02:27:23;;;;;;;7.03;1.30;;;9.30;1.00;;;;;;20363144;29;20069;-45
2024/03/29 02:37:24;;;;;;;4.85;1.02;;;9.30;1.00;;;;;;20361010;29;20080;-45
2024/03/29 02:47:25;;;;;;;5.13;1.10;;;9.30;1.00;;;;;;20363874;29;20115;-45
2024/03/29 02:57:25;;;;;;;7.82;1.05;;;9.30;1.00;;;;;;20358168;29;20126;-45
2024/03/29 03:17:45;;;;;;;3.65;0.80;;;9.40;1.00;;;;;;20347602;29;20048;-45
2024/03/29 03:27:46;;;;;;;4.32;1.10;;;9.50;1.00;;;;;;20357248;29;20504;-45
2024/03/29 03:37:46;;;;;;;5.38;0.80;;;9.50;1.00;;;;;;20362965;29;20103;-45
2024/03/29 03:47:47;;;;;;;6.83;1.03;;;9.40;1.00;;;;;;20356561;29;20067;-45
2024/03/29 03:57:48;;;;;;;5.32;0.70;;;9.50;1.00;;;;;;20354835;29;20845;-45
2024/03/29 04:07:49;;;;;;;5.22;0.70;;;9.40;1.00;;;;;;20360745;29;20043;-45
2024/03/29 04:17:49;;;;;;;5.82;0.88;;;9.40;1.00;;;;;;20356777;29;20059;-45
2024/03/29 04:27:50;;;;;;;4.15;0.80;;;9.60;1.00;;;;;;20353580;29;20039;-46
2024/03/29 04:37:50;;;;;;;4.32;0.85;;;9.60;1.00;;;;;;20357858;29;20482;-45
2024/03/29 04:47:51;;;;;;;3.60;0.75;;;9.60;1.00;;;;;;20354595;29;20078;-45
2024/03/29 04:57:51;;;;;;;3.03;0.47;;;9.60;1.00;;;;;;20353887;29;20044;-45
2024/03/29 05:07:52;;;;;;;5.70;0.50;;;9.60;1.00;;;;;;20353681;29;20036;-45
2024/03/29 05:17:55;;;;;;;1.75;0.20;;;9.60;1.00;;;;;;20352463;29;20152;-45
2024/03/29 05:27:56;;;;;;;1.23;0.30;;;9.40;1.00;;;;;;20356078;29;20048;-45
2024/03/29 05:37:58;;;;;;;3.53;0.50;;;9.30;1.00;;;;;;20354423;29;20044;-45
2024/03/29 05:47:59;;;;;;;2.35;0.30;;;9.20;1.00;;;;;;20352903;29;20475;-45
2024/03/29 05:57:59;;;;;;;2.17;0.40;;;8.90;1.00;;;;;;20353702;29;20154;-43
2024/03/29 06:08:00;;;;;;;4.82;0.80;;;8.70;1.00;;;;;;20350864;29;20103;-43
2024/03/29 06:18:00;;;;;;;2.03;0.52;;;8.60;1.00;;;;;;20349737;29;20040;-43
2024/03/29 06:28:01;;;;;;;2.03;0.60;;;8.30;16.00;;;;;;20359835;29;20036;-43
2024/03/29 06:38:02;;;;;;;1.52;0.40;;;8.20;24.50;;;;;;20353473;29;20412;-43
2024/03/29 06:48:03;;;;;;;3.08;1.40;;;8.30;32.00;;;;;;20362928;29;20520;-43
2024/03/29 06:58:04;;;;;;;2.92;0.80;;;8.40;28.40;;;;;;20359821;29;20431;-43
2024/03/29 07:08:05;;;;;;;3.67;1.20;;;8.50;25.10;;;;;;20363607;29;20028;-44
2024/03/29 07:18:05;;;;;;;2.08;0.82;;;8.60;24.60;;;;;;20355133;29;20179;-44
2024/03/29 07:28:06;;;;;;;1.92;0.60;;;8.90;18.50;;;;;;20362121;29;20491;-43
2024/03/29 07:38:07;;;;;;;3.27;1.00;;;8.90;12.60;;;;;;20359027;29;20043;-44
2024/03/29 07:48:13;;;;;;;2.92;0.60;;;8.90;10.20;;;;;;20357993;29;20475;-44
2024/03/29 07:58:14;;;;;;;3.05;1.00;;;9.20;7.20;;;;;;20358922;29;20039;-44
2024/03/29 08:08:14;;;;;;;1.63;0.70;;;9.50;1.10;;;;;;20360157;29;20036;-44
2024/03/29 08:18:15;;;;;;;2.58;0.52;;;9.60;1.00;;;;;;20356933;29;20054;-45
2024/03/29 08:28:15;;;;;;;0.88;0.22;;;10.00;1.00;;;;;;20323537;29;20514;-44
2024/03/29 08:38:16;;;;;;;1.30;0.40;;;10.10;1.00;;;;;;20332330;29;20107;-46
2024/03/29 08:48:17;;;;;;;1.90;0.40;;;10.40;1.00;;;;;;20353474;29;20508;-44
2024/03/29 08:58:19;;;;;;;1.17;0.30;;;10.50;1.00;;;;;;20350693;29;20423;-45
2024/03/29 09:08:20;;;;;;;2.22;0.70;;;10.50;1.00;;;;;;20339736;29;20441;-45
2024/03/29 09:18:26;;;;;;;1.60;0.40;;;10.60;1.00;;;;;;20312415;29;20048;-47
2024/03/29 09:28:26;;;;;;;1.67;0.55;;;10.70;1.00;;;;;;20338216;29;20141;-46
2024/03/29 09:38:27;;;;;;;1.50;0.47;;;11.20;1.00;;;;;;20220400;29;20060;-46
2024/03/29 09:48:36;;;;;;;3.70;0.57;;;11.40;1.00;;;;;;20180448;29;21250;-46
2024/03/29 09:58:38;;;;;;;3.25;0.73;;;11.20;1.00;;;;;;20184944;29;20079;-46
2024/03/29 10:08:38;;;;;;;2.72;0.70;;;11.10;1.00;;;;;;20174813;29;20044;-46
2024/03/29 10:18:43;;;;;;;1.75;0.80;;;11.60;1.00;;;;;;20202183;29;20541;-44
2024/03/29 10:28:46;;;;;;;2.35;0.80;;;12.30;1.00;;;;;;20197554;29;20033;-45
2024/03/29 10:38:47;;;;;;;2.55;1.15;;;12.40;1.00;;;;;;20189371;29;20572;-45
2024/03/29 10:48:49;;;;;;;5.18;1.80;;;13.00;1.00;;;;;;20200166;29;20401;-45
2024/03/29 10:58:56;;;;;;;4.18;1.75;;;12.90;1.00;;;;;;20187267;29;20672;-45
2024/03/29 11:08:58;;;;;;;4.68;1.40;;;13.00;1.00;;;;;;20186575;29;20607;-45
2024/03/29 11:19:04;;;;;;;3.40;1.30;;;12.90;1.00;;;;;;20196868;29;20585;-45
2024/03/29 11:29:05;;;;;;;2.30;1.20;;;13.50;1.00;;;;;;20201008;29;20040;-45
2024/03/29 11:39:06;;;;;;;2.63;1.20;;;14.00;1.00;;;;;;20201629;29;20045;-45
2024/03/29 11:49:06;;;;;;;4.45;1.90;;;14.30;1.00;;;;;;20200806;29;20473;-45
2024/03/29 11:59:07;;;;;;;4.95;2.40;;;14.20;1.00;;;;;;20204660;29;20033;-45
2024/03/29 12:09:08;;;;;;;4.35;3.00;;;14.50;1.00;;;;;;20206478;29;20052;-45
2024/03/29 12:19:09;;;;;;;5.45;3.13;;;14.60;1.00;;;;;;20201419;29;20508;-44
2024/03/29 12:29:09;;;;;;;4.10;2.70;;;14.50;1.00;;;;;;20198534;29;20045;-44
2024/03/29 12:39:13;;;;;;;4.13;2.55;;;14.10;1.00;;;;;;20204896;29;20049;-44
2024/03/29 12:49:14;;;;;;;3.95;1.55;;;14.20;1.00;;;;;;20198481;29;20132;-45
2024/03/29 12:59:15;;;;;;;3.35;1.30;;;14.50;1.00;;;;;;20196932;29;20474;-45
2024/03/29 13:09:15;;;;;;;3.85;1.27;;;15.30;1.00;;;;;;20200502;29;20065;-45
2024/03/29 13:19:16;;;;;;;2.77;2.00;;;15.10;1.00;;;;;;20196918;29;20055;-44
2024/03/29 13:29:16;;;;;;;5.05;1.75;;;14.90;1.00;;;;;;20198612;29;20049;-44
2024/03/29 13:39:17;;;;;;;4.38;2.08;;;14.90;1.00;;;;;;20321602;29;20403;-44
2024/03/29 13:49:20;;;;;;;2.58;1.20;;;15.20;1.00;;;;;;20357895;29;20052;-44
2024/03/29 13:59:21;;;;;;;2.90;1.20;;;15.20;1.00;;;;;;20337328;29;21951;-44
2024/03/29 14:09:21;;;;;;;2.58;1.50;;;15.30;1.00;;;;;;20357160;29;20044;-44
2024/03/29 14:19:22;;;;;;;3.90;2.73;;;15.10;1.00;;;;;;20354404;29;20040;-45
2024/03/29 14:29:23;;;;;;;4.13;2.60;;;14.80;1.00;;;;;;20353980;29;20042;-44
2024/03/29 14:39:24;;;;;;;3.30;2.40;;;15.10;1.00;;;;;;20353522;29;20491;-44
2024/03/29 14:49:24;;;;;;;2.60;1.83;;;15.00;1.00;;;;;;20350183;29;20050;-45
2024/03/29 14:59:26;;;;;;;5.20;1.80;;;14.80;1.00;;;;;;20365191;29;20052;-44
2024/03/29 15:09:26;;;;;;;2.85;1.52;;;14.80;1.00;;;;;;20368977;29;20048;-45
2024/03/29 15:19:27;;;;;;;4.22;1.27;;;14.90;1.00;;;;;;20366089;29;20464;-44
2024/03/29 15:29:27;;;;;;;4.03;1.10;;;14.80;1.00;;;;;;20364924;29;20036;-45
2024/03/29 15:39:28;;;;;;;1.80;0.80;;;14.80;1.00;;;;;;20365201;29;20051;-45
2024/03/29 15:49:28;;;;;;;2.75;1.48;;;14.80;1.00;;;;;;20363936;29;20047;-45
2024/03/29 15:59:29;;;;;;;1.55;0.80;;;14.80;1.00;;;;;;20361517;29;20126;-45
2024/03/29 16:09:30;;;;;;;2.78;0.88;;;14.70;1.00;;;;;;20360315;29;20415;-45
2024/03/29 16:19:30;;;;;;;2.67;0.80;;;14.70;1.00;;;;;;20360905;29;20042;-45
2024/03/29 16:29:31;;;;;;;2.40;0.88;;;14.60;1.00;;;;;;20359394;29;20856;-46
2024/03/29 16:39:31;;;;;;;1.88;0.80;;;14.60;1.00;;;;;;20360203;29;20050;-44
2024/03/29 16:49:32;;;;;;;1.92;0.80;;;14.50;1.00;;;;;;20359153;29;20051;-45
2024/03/29 16:59:33;;;;;;;2.58;0.90;;;14.50;1.00;;;;;;20358237;29;20050;-45
2024/03/29 17:09:35;;;;;;;3.72;1.40;;;14.40;1.00;;;;;;20358460;29;20423;-45
2024/03/29 17:19:36;;;;;;;2.30;1.02;;;14.20;1.00;;;;;;20358054;29;20039;-45
2024/03/29 17:29:38;;;;;;;4.13;1.55;;;14.10;1.00;;;;;;20345976;29;20034;-44
2024/03/29 17:39:38;;;;;;;2.38;1.33;;;13.90;1.00;;;;;;20357224;29;20044;-45
2024/03/29 17:49:39;;;;;;;3.38;1.50;;;13.80;1.00;;;;;;20357304;29;20416;-45
2024/03/29 17:59:40;;;;;;;3.72;1.58;;;13.70;1.00;;;;;;20338403;29;20031;-45
2024/03/29 18:09:41;;;;;;;4.07;1.48;;;13.50;1.00;;;;;;20357597;29;20066;-45
2024/03/29 18:19:42;;;;;;;6.50;1.38;;;13.50;1.00;;;;;;20363950;29;20558;-45
2024/03/29 18:29:42;;;;;;;3.90;1.50;;;13.30;1.00;;;;;;20359220;29;20058;-45
2024/03/29 18:39:43;;;;;;;2.42;1.30;;;13.20;1.00;;;;;;20245382;29;20108;-45
2024/03/29 18:49:44;;;;;;;2.63;1.20;;;13.00;1.00;;;;;;20212449;29;20413;-45
2024/03/29 18:59:45;;;;;;;3.17;1.63;;;12.90;1.00;;;;;;20210468;29;20048;-45
2024/03/29 19:09:46;;;;;;;3.23;1.60;;;12.80;1.00;;;;;;20211427;29;20047;-45
2024/03/29 19:19:47;;;;;;;2.30;1.30;;;12.70;1.00;;;;;;20210776;29;20608;-45
2024/03/29 19:29:50;;;;;;;2.30;1.30;;;12.70;1.00;;;;;;20208878;29;20085;-45
2024/03/29 19:39:50;;;;;;;3.50;1.25;;;12.70;1.00;;;;;;20207177;29;20421;-45
2024/03/29 19:49:51;;;;;;;2.37;1.00;;;12.70;1.00;;;;;;20208678;29;20043;-45
2024/03/29 19:59:52;;;;;;;2.37;1.50;;;12.70;1.00;;;;;;20204085;29;20477;-45
2024/03/29 20:09:52;;;;;;;2.60;1.50;;;12.70;1.00;;;;;;20207227;29;20574;-45
2024/03/29 20:19:54;;;;;;;2.75;1.20;;;12.70;1.00;;;;;;20206071;29;20104;-45
2024/03/29 20:29:54;;;;;;;4.03;0.93;;;12.70;1.00;;;;;;20204748;29;20053;-45
2024/03/29 20:39:55;;;;;;;3.22;1.50;;;12.80;1.00;;;;;;20203391;29;20141;-45
2024/03/29 20:49:55;;;;;;;3.17;1.88;;;12.70;1.00;;;;;;20203835;29;20375;-45
2024/03/29 20:59:57;;;;;;;6.88;2.40;;;12.60;1.00;;;;;;20201718;29;20409;-45
2024/03/29 21:09:58;;;;;;;4.43;1.85;;;12.60;1.00;;;;;;20202818;29;20049;-45
2024/03/29 21:19:58;;;;;;;2.10;1.30;;;12.60;1.00;;;;;;20202628;29;20067;-44
2024/03/29 21:29:59;;;;;;;3.88;1.77;;;12.60;1.00;;;;;;20200185;29;20143;-45
2024/03/29 21:40:04;;;;;;;6.88;1.80;;;12.70;1.00;;;;;;20200754;29;20540;-44
2024/03/29 21:50:05;;;;;;;5.20;2.10;;;12.70;1.00;;;;;;20201342;29;20056;-44
2024/03/29 22:00:06;;;;;;;4.32;2.25;;;12.70;1.00;;;;;;20215519;29;20465;-45
2024/03/29 22:10:08;;;;;;;4.90;2.17;;;12.80;1.00;;;;;;20214004;29;20783;-45
2024/03/29 22:20:08;;;;;;;4.07;1.83;;;12.70;1.00;;;;;;20215053;29;20151;-44
2024/03/29 22:30:09;;;;;;;3.75;2.20;;;12.70;1.00;;;;;;20213951;29;20049;-44
2024/03/29 22:40:10;;;;;;;5.55;2.30;;;12.70;1.00;;;;;;20213312;29;20312;-44
2024/03/29 22:50:11;;;;;;;4.83;2.40;;;12.60;1.00;;;;;;20212284;29;20382;-44
2024/03/29 23:00:18;;;;;;;2.63;1.77;;;12.40;1.00;;;;;;20211550;29;20487;-44
2024/03/29 23:10:19;;;;;;;3.57;1.70;;;12.30;1.00;;;;;;20209456;29;20502;-45
2024/03/29 23:20:19;;;;;;;2.55;1.20;;;12.30;1.00;;;;;;20212359;29;20052;-45
2024/03/29 23:30:20;;;;;;;2.03;1.20;;;12.20;1.00;;;;;;20209704;29;20051;-45
2024/03/29 23:40:21;;;;;;;3.80;1.00;;;12.30;1.00;;;;;;20207961;29;20048;-44
2024/03/29 23:50:22;;;;;;;3.10;0.85;;;12.40;1.00;;;;;;20208687;29;20104;-45
